• Join FlightAware (Why Join?)
  • Login
  • US Flag 
03:16PM EST


 

Airport Tracker/Info


-or-


 

Live Flight TrackerFlight Track Log ✈ UPS2062 ✈ 07-Oct-2013 ✈ KSDF - KBDL

Flight Track Log - Related Links

Times and Time Zones

All times are in EDT time to prevent confusion due to time zone crossing. See the UPS2062 flight status page for this flight to view local times or setup timezone preferences in your user account.

Time Position Orientation Groundspeed Altitude Reporting Facility
EDT Latitude Longitude Course Direction KTS MPH feet Rate Location/Type
04:25PM 38.1770 -85.7450 171° South 157 181 700  Level FlightAware
04:26PM 38.1870 -85.7480 347° North 151 174 1,500 2,640 Climbing FlightAware
04:26PM 38.2020 -85.7530 345° North 171 197 2,300 1,980 Climbing FlightAware
04:26PM 38.2090 -85.7560 341° North 184 212 2,400 1,200 Climbing FlightAware
04:26PM 38.2260 -85.7710 325° Northwest 218 251 2,900 2,040 Climbing FlightAware
04:27PM 38.2420 -85.7830 330° Northwest 226 260 3,800 3,000 Climbing FlightAware
04:27PM 38.2570 -85.7940 330° Northwest 235 270 4,600 2,700 Climbing FlightAware
04:27PM 38.2790 -85.8080 333° Northwest 251 289 5,500 2,820 Climbing FlightAware
04:28PM 38.3010 -85.8180 340° North 256 295 6,600 3,300 Climbing FlightAware
04:28PM 38.3230 -85.8260 344° North 258 297 7,700 3,300 Climbing FlightAware
04:28PM 38.3470 -85.8360 342° North 263 303 8,800 3,000 Climbing FlightAware
04:29PM 38.3720 -85.8460 343° North 265 305 9,800 2,100 Climbing FlightAware
04:29PM 38.4140 -85.8640 341° North 297 342 10,800 1,740 Climbing FlightAware
04:30PM 38.4620 -85.8840 342° North 336 387 11,800 2,580 Climbing FlightAware
04:31PM 38.5210 -85.9060 344° North 359 413 13,900 3,600 Climbing FlightAware
04:31PM 38.5700 -85.8970 North 376 433 15,900 3,540 Climbing FlightAware
04:31PM 38.5880 -85.8820 33° Northeast 394 453 16,400 3,120 Climbing FlightAware
04:32PM 38.6280 -85.8280 47° Northeast 403 464 18,200 3,120 Climbing FlightAware
04:32PM 38.6770 -85.7650 45° Northeast 414 476 20,000 2,880 Climbing FlightAware
04:33PM 38.7260 -85.7040 44° Northeast 424 488 21,700 2,640 Climbing FlightAware
04:34PM 38.7780 -85.6380 45° Northeast 437 503 23,200 2,520 Climbing FlightAware
04:34PM 38.8270 -85.5760 45° Northeast 443 510 24,700 2,520 Climbing FlightAware
04:35PM 38.8760 -85.5140 45° Northeast 450 518 26,100 2,280 Climbing FlightAware
04:35PM 38.9290 -85.4450 45° Northeast 462 532 27,400 2,040 Climbing FlightAware
04:36PM 38.9810 -85.3790 45° Northeast 471 542 28,500 2,040 Climbing FlightAware
04:36PM 39.0380 -85.3050 45° Northeast 480 552 29,800 2,160 Climbing FlightAware
04:37PM 39.1090 -85.2140 45° Northeast 479 551 31,500 1,560 Climbing FlightAware
04:38PM 39.1710 -85.1340 45° Northeast 494 568 32,000 360 Climbing FlightAware
04:38PM 39.2290 -85.0590 45° Northeast 499 574 32,000 720 Level FlightAware
04:39PM 39.2870 -84.9840 45° Northeast 487 560 32,900 1,920 Climbing FlightAware
04:40PM 39.3380 -84.9170 45° Northeast 480 552 34,200 1,740 Climbing FlightAware
04:40PM 39.3940 -84.8450 45° Northeast 488 562 34,900 1,260 Climbing FlightAware
04:41PM 39.4540 -84.7660 45° Northeast 483 556 35,800 900 Climbing FlightAware
04:41PM 39.5060 -84.6970 46° Northeast 478 550 36,000 120 Climbing FlightAware
04:42PM 39.5560 -84.6310 45° Northeast 478 550 36,000  Level FlightAware
04:43PM 39.6100 -84.5610 45° Northeast 478 550 36,000  Level FlightAware
04:43PM 39.6650 -84.4880 46° Northeast 481 554 36,000  Level FlightAware
04:44PM 39.7120 -84.4160 50° Northeast 488 562 36,000  Level FlightAware
04:44PM 39.7610 -84.3240 55° Northeast 495 570 36,000  Level FlightAware
04:45PM 39.8070 -84.2350 56° Northeast 496 571 36,000  Level FlightAware
04:45PM 39.8470 -84.1560 57° Northeast 496 571 36,000  Level FlightAware
04:46PM 39.8970 -84.0570 57° Northeast 498 573 36,000  Level FlightAware
04:47PM 39.9380 -83.9760 57° Northeast 500 575 36,000  Level FlightAware
04:47PM 39.9810 -83.8890 57° Northeast 500 575 36,000  Level FlightAware
04:48PM 40.0300 -83.7900 57° Northeast 501 577 36,000 240 Level FlightAware
04:48PM 40.0720 -83.7070 57° Northeast 499 574 36,300 840 Climbing FlightAware
04:49PM 40.1160 -83.6170 57° Northeast 492 566 37,000 600 Climbing FlightAware
04:50PM 40.1580 -83.5330 57° Northeast 484 557 37,000  Level FlightAware
04:50PM 40.2020 -83.4440 57° Northeast 482 555 37,000  Level FlightAware
04:51PM 40.2400 -83.3670 57° Northeast 483 556 37,000  Level FlightAware
04:51PM 40.2890 -83.2680 57° Northeast 487 560 37,000  Level FlightAware
04:52PM 40.3270 -83.1890 58° Northeast 489 563 37,000  Level FlightAware
04:52PM 40.3720 -83.0980 57° Northeast 492 566 37,000  Level FlightAware
04:53PM 40.4130 -83.0130 58° Northeast 494 568 37,000  Level FlightAware
04:54PM 40.4570 -82.9230 57° Northeast 496 571 37,000  Level FlightAware
04:54PM 40.4980 -82.8360 58° Northeast 496 571 37,000  Level FlightAware
04:55PM 40.5410 -82.7480 57° Northeast 497 572 37,000  Level FlightAware
04:55PM 40.5860 -82.6560 57° Northeast 500 575 37,000  Level FlightAware
04:56PM 40.6290 -82.5550 61° Northeast 504 580 37,000  Level FlightAware
04:57PM 40.6620 -82.4690 63° Northeast 506 582 37,000  Level FlightAware
04:57PM 40.6980 -82.3700 64° Northeast 508 585 37,000  Level FlightAware
04:58PM 40.7300 -82.2790 65° Northeast 508 585 37,000  Level FlightAware
04:58PM 40.7770 -82.1500 64° Northeast 509 586 37,000  Level FlightAware
04:59PM 40.8080 -82.0610 65° Northeast 510 587 37,000  Level FlightAware
05:00PM 40.8450 -81.9570 65° Northeast 510 587 37,000  Level FlightAware
05:00PM 40.8820 -81.8520 65° Northeast 512 589 37,000  Level FlightAware
05:01PM 40.9120 -81.7650 65° Northeast 512 589 37,000  Level FlightAware
05:01PM 40.9490 -81.6590 65° Northeast 513 590 37,000  Level FlightAware
05:02PM 40.9860 -81.5540 65° Northeast 514 592 37,000  Level FlightAware
05:02PM 41.0200 -81.4560 65° Northeast 514 592 37,000  Level FlightAware
05:03PM 41.0540 -81.3590 65° Northeast 515 593 37,000  Level FlightAware
05:04PM 41.0880 -81.2610 65° Northeast 516 594 37,000  Level FlightAware
05:04PM 41.1230 -81.1580 66° East 517 595 37,000  Level FlightAware
05:05PM 41.1550 -81.0650 65° Northeast 517 595 37,000  Level FlightAware
05:05PM 41.1930 -80.9540 66° East 519 597 37,000  Level FlightAware
05:06PM 41.2280 -80.8520 65° Northeast 519 597 37,000  Level FlightAware
05:07PM 41.2610 -80.7540 66° East 520 598 37,000  Level FlightAware
05:07PM 41.2950 -80.6510 66° East 521 600 37,000  Level FlightAware
05:08PM 41.3300 -80.5480 66° East 523 602 37,000  Level FlightAware
05:08PM 41.3700 -80.4300 66° East 522 601 37,000  Level FlightAware
05:09PM 41.3990 -80.3420 66° East 522 601 37,000  Level FlightAware
05:10PM 41.4370 -80.2280 66° East 523 602 37,000  Level FlightAware
05:10PM 41.4720 -80.1230 66° East 523 602 37,000  Level FlightAware
05:11PM 41.5000 -80.0390 66° East 522 601 37,000  Level FlightAware
05:11PM 41.5450 -79.9010 66° East 520 598 37,000  Level FlightAware
05:12PM 41.5820 -79.7870 67° East 520 598 37,000  Level FlightAware
05:13PM 41.6120 -79.6960 66° East 520 598 37,000  Level FlightAware
05:13PM 41.6450 -79.5940 67° East 520 598 37,000  Level FlightAware
05:14PM 41.6750 -79.5030 66° East 520 598 37,000  Level FlightAware
05:14PM 41.7150 -79.3790 67° East 520 598 37,000  Level FlightAware
05:15PM 41.7440 -79.2870 67° East 522 601 37,000  Level FlightAware
05:16PM 41.7770 -79.1850 67° East 523 602 37,000  Level FlightAware
05:16PM 41.8120 -79.0760 67° East 525 604 37,000  Level FlightAware
05:17PM 41.8460 -78.9670 67° East 526 605 37,000  Level FlightAware
05:17PM 41.8790 -78.8630 67° East 528 608 37,000  Level FlightAware
05:18PM 41.9120 -78.7580 67° East 530 610 37,000  Level FlightAware
05:19PM 41.9510 -78.6330 67° East 533 613 37,000  Level FlightAware
05:19PM 41.9830 -78.5330 67° East 534 615 37,000  Level FlightAware
05:20PM 42.0140 -78.4320 68° East 536 617 37,000  Level FlightAware
05:20PM 42.0450 -78.3310 68° East 537 618 37,000  Level FlightAware
05:21PM 42.0780 -78.2270 67° East 538 619 37,000  Level FlightAware
05:21PM 42.1140 -78.1090 68° East 538 619 37,000  Level FlightAware
05:22PM 42.1430 -78.0140 68° East 538 619 37,000  Level FlightAware
05:23PM 42.1800 -77.8920 68° East 538 619 37,000  Level FlightAware
05:23PM 42.2150 -77.7760 68° East 538 619 37,000  Level FlightAware
05:24PM 42.2470 -77.6710 68° East 540 621 37,000  Level FlightAware
05:24PM 42.2820 -77.5560 68° East 543 625 37,000  Level FlightAware
05:25PM 42.3110 -77.4590 68° East 544 626 37,000  Level FlightAware
05:25PM 42.3470 -77.3380 68° East 545 627 37,000  Level FlightAware
05:26PM 42.3810 -77.2230 68° East 546 628 37,000 -360 Level FlightAware
05:27PM 42.4140 -77.1110 68° East 545 627 36,600 -840 Descending FlightAware
05:27PM 42.4390 -77.0090 72° East 524 603 36,100 -1,020 Descending FlightAware
05:28PM 42.4540 -76.8940 80° East 508 585 35,500 -960 Descending FlightAware
05:28PM 42.4660 -76.7890 81° East 507 583 35,000 -420 Descending FlightAware
05:29PM 42.4780 -76.6710 82° East 504 580 35,000  Level FlightAware
05:30PM 42.4880 -76.5720 82° East 506 582 35,000  Level FlightAware
05:30PM 42.4980 -76.4550 83° East 491 565 35,000  Level FlightAware
05:31PM 42.4950 -76.3530 92° East 487 560 35,000  Level FlightAware
05:31PM 42.4930 -76.2420 91° East 491 565 35,000  Level FlightAware
05:32PM 42.4910 -76.1420 92° East 492 566 35,000 -180 Level FlightAware
05:32PM 42.4910 -76.0300 90° East 490 564 34,800 -540 Descending FlightAware
05:33PM 42.4910 -75.9240 90° East 484 557 34,400 -720 Descending FlightAware
05:34PM 42.4910 -75.8160 90° East 477 549 34,000 -900 Descending FlightAware
05:34PM 42.4900 -75.7130 91° East 476 548 33,400 -1,140 Descending FlightAware
05:35PM 42.4890 -75.6070 91° East 478 550 32,700 -1,260 Descending FlightAware
05:35PM 42.4890 -75.5100 90° East 479 551 32,000 -1,260 Descending FlightAware
05:36PM 42.4880 -75.4040 91° East 480 552 31,300 -1,260 Descending FlightAware
05:37PM 42.4870 -75.2980 91° East 483 556 30,500 -1,860 Descending FlightAware
05:37PM 42.4850 -75.1870 91° East 482 555 29,100 -2,220 Descending FlightAware
05:38PM 42.4840 -75.0800 91° East 475 547 27,900 -1,800 Descending FlightAware
05:38PM 42.4830 -74.9830 91° East 463 533 27,000 -900 Descending FlightAware
05:39PM 42.4810 -74.8570 91° East 469 540 26,800 -720 Descending FlightAware
05:40PM 42.4790 -74.7630 92° East 468 539 26,100 -1,680 Descending FlightAware
05:40PM 42.4780 -74.6520 91° East 460 529 24,900 -2,100 Descending FlightAware
05:41PM 42.4790 -74.5530 89° East 462 532 23,700 -2,040 Descending FlightAware
05:41PM 42.4810 -74.4570 88° East 457 526 22,600 -1,800 Descending FlightAware
05:42PM 42.4830 -74.3600 88° East 445 512 21,600 -1,680 Descending FlightAware
05:42PM 42.4850 -74.2650 88° East 432 497 20,700 -1,560 Descending FlightAware
05:43PM 42.4860 -74.1650 89° East 420 483 19,800 -1,380 Descending FlightAware
05:44PM 42.4870 -74.0720 89° East 408 470 19,000 -1,620 Descending FlightAware
05:44PM 42.4880 -73.9890 89° East 406 467 18,000 -1,740 Descending FlightAware
05:45PM 42.4890 -73.9030 89° East 397 457 17,100 -1,860 Descending FlightAware
05:45PM 42.4900 -73.8090 89° East 396 456 15,800 -1,740 Descending FlightAware
05:46PM 42.4860 -73.7360 94° East 381 438 15,200 -900 Descending FlightAware
05:46PM 42.4730 -73.6670 104° East 360 414 14,900 -720 Descending FlightAware
05:47PM 42.4480 -73.5940 115° Southeast 351 404 14,400 -900 Descending FlightAware
05:48PM 42.4220 -73.5250 117° Southeast 360 414 13,900 -900 Descending FlightAware
05:48PM 42.3980 -73.4610 117° Southeast 363 418 13,400 -960 Descending FlightAware
05:49PM 42.3700 -73.3860 117° Southeast 357 411 12,800 -900 Descending FlightAware
05:49PM 42.3420 -73.3130 117° Southeast 353 406 12,300 -840 Descending FlightAware
05:50PM 42.3170 -73.2460 117° Southeast 347 399 11,800 -900 Descending FlightAware
05:50PM 42.3120 -73.2170 103° East 357 411 11,600 -1,020 Descending FlightAware
05:50PM 42.3110 -73.1968 94° East 360 414 11,400 -1,140 Descending FlightAware ADS-B (KSNC)
05:51PM 42.3150 -73.1185 86° East 346 398 10,800 -960 Descending FlightAware ADS-B (KSNC)
05:52PM 42.3190 -73.0380 86° East 310 357 10,300 -780 Descending FlightAware
05:52PM 42.3182 -73.0344 106° East 291 335 10,200 -2,160 Descending FlightAware ADS-B (KSNC)
05:52PM 42.2970 -72.9810 118° Southeast 276 318 9,000 -2,400 Descending FlightAware
05:53PM 42.2810 -72.9490 124° Southeast 289 333 8,200 -1,620 Descending FlightAware
05:53PM 42.2660 -72.9200 125° Southeast 275 316 7,900 -780 Descending FlightAware
05:53PM 42.2560 -72.9090 141° Southeast 257 296 7,800 -780 Descending FlightAware
05:53PM 42.2510 -72.9041 144° Southeast 256 295 7,700 -1,140 Descending FlightAware ADS-B (KSNC)
05:54PM 42.2161 -72.8699 144° Southeast 255 293 7,000 -1,200 Descending FlightAware ADS-B (KSNC)
05:54PM 42.1780 -72.8310 143° Southeast 253 291 6,200 -840 Descending FlightAware
05:55PM 42.1550 -72.8070 142° Southeast 253 291 6,100  Descending FlightAware
05:55PM 42.1684 -72.8206 323° Northwest 256 295 6,200  Climbing FlightAware ADS-B (KSNC)
05:56PM 42.0970 -72.7500 144° Southeast 257 296 6,100 -120 Descending FlightAware
05:56PM 42.0872 -72.7404 144° Southeast 257 296 6,100  Level FlightAware ADS-B (KSNC)
05:56PM 42.0681 -72.7216 144° Southeast 260 299 6,100 -240 Level FlightAware ADS-B (KSNC)
05:57PM 42.0598 -72.7117 139° Southeast 269 310 6,000 -840 Descending FlightAware ADS-B (KSNC)
05:57PM 42.0505 -72.6856 116° Southeast 287 330 5,800 -960 Descending FlightAware ADS-B (KSNC)
05:57PM 42.0499 -72.6685 93° East 293 337 5,600 -1,380 Descending FlightAware ADS-B (KSNC)
05:57PM 42.0520 -72.6543 78° East 298 343 5,400 -1,020 Descending FlightAware ADS-B (KSNC)
05:58PM 42.0590 -72.6362 62° Northeast 276 318 5,100 -780 Descending FlightAware ADS-B (KSNC)
05:58PM 42.1020 -72.5750 47° Northeast 244 281 4,600 -600 Descending FlightAware
05:59PM 42.1240 -72.5430 47° Northeast 244 281 4,400 -540 Descending FlightAware
05:59PM 42.1530 -72.4990 48° Northeast 237 273 4,000 -1,140 Descending FlightAware
06:00PM 42.1336 -72.4681 48° Northeast 172 198 3,000 -1,500 Descending Boston Center
06:00PM 42.1108 -72.4708 185° South 145 167 2,600 -540 Descending Boston Center
06:01PM 42.0897 -72.4906 215° Southwest 98 113 2,500 -120 Descending Boston Center
06:01PM 42.0753 -72.5100 225° Southwest 157 181 2,500  Level Boston Center
06:02PM 42.0628 -72.5267 225° Southwest 118 136 2,500  Level Boston Center
06:02PM 42.0461 -72.5464 221° Southwest 152 175 2,500 -240 Level Boston Center
06:03PM 42.0189 -72.5825 225° Southwest 126 145 2,200 -480 Descending Boston Center
06:04PM 42.0000 -72.6078 225° Southwest 109 125 1,600 -600 Descending Boston Center
06:05PM 41.9750 -72.6411 225° Southwest 120 138 1,000 -600 Descending Boston Center
06:07PM 41.9333 -72.6833 214° Southwest  Level FlightAware Approximate